BWI weather

Baltimore/Washington International Thurgood Marshall Airport
Baltimore, Maryland, United States

Public forecast

Using degrees Fahrenheit for public forecast. Weather courtesy of forecast.io.

METAR (pilot weather report)

Retrieved 2018/08/20 02:54 UTC (44 minutes ago):

KBWI 200254Z 06011KT 10SM BKN014 BKN019 BKN029 22/20 A3005 RMK AO2 RAB10E19 SLP173 P0000 60000 T02220200 51016

TAF (pilot weather forecast)

Forecast is more than 12 hours old.

Retrieved 2018/08/19 00:46 UTC (1 day ago):

TAF KBWI 192344Z 2000/2106 06009KT P6SM BKN015 BKN030 BKN250 FM200300 05005KT P6SM BKN015 BKN030 FM201300 07006KT P6SM SCT015 BKN025 FM201800 08007KT P6SM SCT025 BKN035 FM210000 11006KT P6SM BKN025